Petersburg, ND (58272)

8:15 AM CST on February 14, 2016 (GMT -0600)
Larimore | | Change Station
CLOSE
Current Station
Personal Weather Station
Location: Larimore, ND
Elevation: 1125 ft
Nearby Weather Stations
Active Advisory: Winter Weather Advisory Active Notice: Local Storm Report

Elev 1125 ft 47.91 °N, 97.63 °W | Updated 16 seconds ago

Snow
Snow
12.2 °F
Feels Like 6 °F
N
3.7
Wind Variable Wind from East

Today
High -- | Low -- °F
--% Chance of Precip.
Yesterday
High -- | Low -- °F
Precip. -- in
Pressure 29.81 in
Visibility 1.2 miles
Clouds Mostly Cloudy 500 ft
Overcast 1200 ft
Windchill 6 °F
Dew Point 9 °F
Humidity 85%
Rainfall 0.00 in
Snow Depth Not available.
7:40 AM 5:52 PM
Waxing Crescent, 42% visible
SPECI KRDR 141408Z AUTO 19016KT 1 1/4SM -SN BKN005 OVC012 M11/M13 A2981 RMK AO2 VIS 1 1/4V2 BKN V OVC
Pressure 29.81 in
Visibility 1.2 miles
Clouds Mostly Cloudy 500 ft
Overcast 1200 ft
Windchill 6 °F
Dew Point 9 °F
Humidity 85%
Rainfall 0.00 in
Snow Depth Not available.
7:40 AM 5:52 PM
Waxing Crescent, 42% visible
SPECI KRDR 141408Z AUTO 19016KT 1 1/4SM -SN BKN005 OVC012 M11/M13 A2981 RMK AO2 VIS 1 1/4V2 BKN V OVC

10-Day Weather Forecast

Almanac

Astronomy

Feb. 14, 2016 Rise Set
Actual Time
Civil Twilight
Nautical Twilight
Astronomical Twilight
Moon
Length of Visible Light
Length of Day
Tomorrow will be .
, % of the Moon is Illuminated

Today's Extremes

State Highs State Lows

Community

WunderPhotos

Upload Photos

1,892,797 photos uploaded!

WunderBlog® & News

Nearby

Air Quality

  Air Quality AQ Index Pollutant
Not available.

Snow Depth

Station Depth Elevation

Earthquake Activity

City Distance Mag. Time & Date
Minimum magnitude displayed is 2.5.

Coastal Water Temperatures

Place Temperature

Stations

Nearby Weather Stations

Station Location Temp. Windchill Dew Point Humidity Wind Precip. Elev Updated Type
                   

Watches & Warnings

Winter Weather Advisory
Issued: 3:12 AM CST Feb. 14, 2016 – National Weather Service

... Winter Weather Advisory remains in effect until noon CST
today...

* timing... snow to continue... .diminishing around noon today.

* Snow accumulations... 2 to 4 inches.

* Winds / visibilities... look for reduced visibilities at times
as low as one half mile.

* Impacts... plan on slippery Road conditions.

Precautionary/preparedness actions...

A Winter Weather Advisory for snow means periods of snow will
cause primarily travel difficulties. Be prepared for snow covered
roads and limited visibilities... and use caution while driving.
The latest Road conditions for the state you are calling from can
be obtained by calling 5 1 1.